sensor_id;sensor_type;location;lat;lon;timestamp;P1;P4;P2;P0;N10;N4;N25;N1;N05;TS
84439;SPS30;74675;51.980;5.730;2024-01-25T00:02:14;12.6;11.4;8.4;4.7;;;;4.0;67.0;
84439;SPS30;74675;51.980;5.730;2024-01-25T00:04:43;13.7;12.3;9.0;4.9;;;;4.0;62.0;
84439;SPS30;74675;51.980;5.730;2024-01-25T00:07:11;12.8;11.5;8.5;4.7;;;;4.0;60.0;
84439;SPS30;74675;51.980;5.730;2024-01-25T00:09:40;12.3;11.1;8.2;4.5;;;;4.0;59.0;
84439;SPS30;74675;51.980;5.730;2024-01-25T00:12:09;13.9;12.5;9.3;5.1;;;;5.0;60.0;
84439;SPS30;74675;51.980;5.730;2024-01-25T00:14:39;12.2;10.9;7.9;4.2;;;;5.0;58.0;
84439;SPS30;74675;51.980;5.730;2024-01-25T00:17:08;13.0;11.7;8.6;4.7;;;;5.0;59.0;
84439;SPS30;74675;51.980;5.730;2024-01-25T00:19:36;12.0;10.7;7.9;4.2;;;;5.0;58.0;
84439;SPS30;74675;51.980;5.730;2024-01-25T00:22:08;12.7;11.4;8.5;4.9;;;;5.0;56.0;
84439;SPS30;74675;51.980;5.730;2024-01-25T00:24:36;13.2;11.8;8.7;4.8;;;;6.0;54.0;
84439;SPS30;74675;51.980;5.730;2024-01-25T00:27:05;12.1;10.9;8.0;4.4;;;;6.0;53.0;
84439;SPS30;74675;51.980;5.730;2024-01-25T00:29:34;13.0;11.6;8.5;4.6;;;;7.0;53.0;
84439;SPS30;74675;51.980;5.730;2024-01-25T00:32:03;14.3;12.8;9.3;5.0;;;;7.0;52.0;
84439;SPS30;74675;51.980;5.730;2024-01-25T00:34:32;11.0;9.9;7.3;4.0;;;;8.0;49.0;
84439;SPS30;74675;51.980;5.730;2024-01-25T00:37:01;12.6;11.3;8.2;4.4;;;;8.0;50.0;
84439;SPS30;74675;51.980;5.730;2024-01-25T00:39:30;11.9;10.7;8.0;4.6;;;;7.0;52.0;
84439;SPS30;74675;51.980;5.730;2024-01-25T00:42:02;11.3;10.2;7.6;4.3;;;;7.0;50.0;
84439;SPS30;74675;51.980;5.730;2024-01-25T00:44:33;13.1;11.7;8.5;4.4;;;;7.0;50.0;
84439;SPS30;74675;51.980;5.730;2024-01-25T00:47:02;12.4;11.1;8.2;4.4;;;;7.0;51.0;
84439;SPS30;74675;51.980;5.730;2024-01-25T00:49:32;12.9;11.6;8.6;4.7;;;;8.0;49.0;
84439;SPS30;74675;51.980;5.730;2024-01-25T00:52:02;11.6;10.4;7.6;4.1;;;;8.0;48.0;
84439;SPS30;74675;51.980;5.730;2024-01-25T00:54:32;12.8;11.4;8.3;4.3;;;;8.0;48.0;
84439;SPS30;74675;51.980;5.730;2024-01-25T00:57:01;13.5;12.1;8.8;4.7;;;;8.0;48.0;
84439;SPS30;74675;51.980;5.730;2024-01-25T00:59:31;10.1;9.0;6.7;3.6;;;;8.0;52.0;
84439;SPS30;74675;51.980;5.730;2024-01-25T01:02:02;11.1;10.0;7.4;4.2;;;;6.0;68.0;
84439;SPS30;74675;51.980;5.730;2024-01-25T01:04:34;11.2;10.1;7.5;4.2;;;;5.0;65.0;
84439;SPS30;74675;51.980;5.730;2024-01-25T01:07:03;12.0;10.8;8.0;4.4;;;;6.0;57.0;
84439;SPS30;74675;51.980;5.730;2024-01-25T01:09:32;11.8;10.6;7.7;4.2;;;;5.0;90.0;
84439;SPS30;74675;51.980;5.730;2024-01-25T01:12:01;12.7;11.4;8.4;4.6;;;;4.0;74.0;
84439;SPS30;74675;51.980;5.730;2024-01-25T01:14:30;11.5;10.4;7.6;4.2;;;;4.0;60.0;
84439;SPS30;74675;51.980;5.730;2024-01-25T01:16:59;13.6;12.2;8.9;4.8;;;;5.0;58.0;
84439;SPS30;74675;51.980;5.730;2024-01-25T01:19:27;13.3;11.9;8.6;4.5;;;;5.0;58.0;
84439;SPS30;74675;51.980;5.730;2024-01-25T01:21:56;14.1;12.6;9.1;4.7;;;;6.0;58.0;
84439;SPS30;74675;51.980;5.730;2024-01-25T01:24:25;13.1;11.7;8.5;4.5;;;;6.0;56.0;
84439;SPS30;74675;51.980;5.730;2024-01-25T01:26:54;13.1;11.8;8.7;4.8;;;;7.0;55.0;
84439;SPS30;74675;51.980;5.730;2024-01-25T01:29:25;10.4;9.4;7.1;4.1;;;;8.0;53.0;
84439;SPS30;74675;51.980;5.730;2024-01-25T01:31:56;12.1;10.9;8.0;4.4;;;;9.0;49.0;
84439;SPS30;74675;51.980;5.730;2024-01-25T01:34:24;11.1;10.0;7.4;4.1;;;;9.0;50.0;
84439;SPS30;74675;51.980;5.730;2024-01-25T01:36:53;11.7;10.5;7.7;4.3;;;;10.0;50.0;
84439;SPS30;74675;51.980;5.730;2024-01-25T01:39:22;11.2;10.0;7.4;4.0;;;;10.0;51.0;
84439;SPS30;74675;51.980;5.730;2024-01-25T01:41:53;11.0;9.9;7.2;3.9;;;;10.0;51.0;
84439;SPS30;74675;51.980;5.730;2024-01-25T01:44:22;13.2;11.9;8.7;4.8;;;;10.0;52.0;
84439;SPS30;74675;51.980;5.730;2024-01-25T01:46:50;12.7;11.3;8.2;4.3;;;;10.0;54.0;
84439;SPS30;74675;51.980;5.730;2024-01-25T01:49:21;11.5;10.3;7.5;3.9;;;;10.0;52.0;
84439;SPS30;74675;51.980;5.730;2024-01-25T01:51:50;13.1;11.7;8.5;4.4;;;;10.0;53.0;
84439;SPS30;74675;51.980;5.730;2024-01-25T01:54:20;12.7;11.4;8.3;4.4;;;;10.0;54.0;
84439;SPS30;74675;51.980;5.730;2024-01-25T01:56:49;13.1;11.7;8.5;4.5;;;;10.0;57.0;
84439;SPS30;74675;51.980;5.730;2024-01-25T01:59:20;11.9;10.7;7.7;4.1;;;;10.0;59.0;
84439;SPS30;74675;51.980;5.730;2024-01-25T02:01:51;12.1;10.9;7.9;4.2;;;;9.0;62.0;
84439;SPS30;74675;51.980;5.730;2024-01-25T02:04:20;14.8;13.2;9.5;5.0;;;;10.0;62.0;
84439;SPS30;74675;51.980;5.730;2024-01-25T02:06:49;12.7;11.4;8.4;4.6;;;;9.0;62.0;
84439;SPS30;74675;51.980;5.730;2024-01-25T02:09:18;12.7;11.4;8.3;4.4;;;;10.0;61.0;
84439;SPS30;74675;51.980;5.730;2024-01-25T02:11:46;13.5;12.1;8.8;4.7;;;;9.0;70.0;
84439;SPS30;74675;51.980;5.730;2024-01-25T02:14:15;14.9;13.2;9.4;4.7;;;;9.0;71.0;
84439;SPS30;74675;51.980;5.730;2024-01-25T02:16:44;12.4;11.1;8.0;4.2;;;;8.0;70.0;
84439;SPS30;74675;51.980;5.730;2024-01-25T02:19:13;12.4;11.1;8.1;4.3;;;;8.0;73.0;
84439;SPS30;74675;51.980;5.730;2024-01-25T02:21:41;13.8;12.4;9.0;4.7;;;;8.0;73.0;
84439;SPS30;74675;51.980;5.730;2024-01-25T02:24:10;11.4;10.2;7.4;3.9;;;;7.0;72.0;
84439;SPS30;74675;51.980;5.730;2024-01-25T02:26:39;11.7;10.5;7.7;4.1;;;;8.0;70.0;
84439;SPS30;74675;51.980;5.730;2024-01-25T02:29:08;13.0;11.6;8.4;4.4;;;;7.0;71.0;
84439;SPS30;74675;51.980;5.730;2024-01-25T02:31:38;12.7;11.4;8.4;4.5;;;;7.0;71.0;
84439;SPS30;74675;51.980;5.730;2024-01-25T02:34:09;12.6;11.3;8.3;4.6;;;;7.0;70.0;
84439;SPS30;74675;51.980;5.730;2024-01-25T02:36:38;11.9;10.7;7.9;4.2;;;;6.0;74.0;
84439;SPS30;74675;51.980;5.730;2024-01-25T02:39:06;14.3;12.8;9.3;5.0;;;;7.0;69.0;
84439;SPS30;74675;51.980;5.730;2024-01-25T02:41:35;12.3;11.0;8.1;4.4;;;;8.0;61.0;
84439;SPS30;74675;51.980;5.730;2024-01-25T02:44:03;12.7;11.4;8.4;4.6;;;;9.0;59.0;
84439;SPS30;74675;51.980;5.730;2024-01-25T02:46:33;10.3;9.3;7.0;4.0;;;;8.0;76.0;
84439;SPS30;74675;51.980;5.730;2024-01-25T02:49:01;12.7;11.4;8.3;4.4;;;;8.0;72.0;
84439;SPS30;74675;51.980;5.730;2024-01-25T02:51:30;14.5;12.9;9.2;4.5;;;;8.0;69.0;
84439;SPS30;74675;51.980;5.730;2024-01-25T02:53:58;12.0;10.8;7.8;4.0;;;;7.0;69.0;
84439;SPS30;74675;51.980;5.730;2024-01-25T02:56:27;15.0;13.4;9.7;5.1;;;;8.0;62.0;
84439;SPS30;74675;51.980;5.730;2024-01-25T02:59:00;14.0;12.5;9.1;4.7;;;;9.0;53.0;
84439;SPS30;74675;51.980;5.730;2024-01-25T03:01:36;12.9;11.6;8.4;4.5;;;;11.0;53.0;
84439;SPS30;74675;51.980;5.730;2024-01-25T03:04:09;12.7;11.4;8.4;4.5;;;;15.0;48.0;
84439;SPS30;74675;51.980;5.730;2024-01-25T03:06:37;14.4;12.9;9.2;4.6;;;;21.0;46.0;
84439;SPS30;74675;51.980;5.730;2024-01-25T03:09:06;15.1;13.4;9.6;4.8;;;;29.0;44.0;
84439;SPS30;74675;51.980;5.730;2024-01-25T03:11:35;15.2;13.6;9.9;5.2;;;;30.0;44.0;
84439;SPS30;74675;51.980;5.730;2024-01-25T03:14:03;13.5;12.0;8.6;4.4;;;;30.0;45.0;
84439;SPS30;74675;51.980;5.730;2024-01-25T03:16:32;12.6;11.3;8.2;4.2;;;;30.0;48.0;
84439;SPS30;74675;51.980;5.730;2024-01-25T03:19:01;13.9;12.4;9.1;4.9;;;;26.0;56.0;
84439;SPS30;74675;51.980;5.730;2024-01-25T03:21:30;14.5;13.0;9.4;5.0;;;;28.0;53.0;
84439;SPS30;74675;51.980;5.730;2024-01-25T03:23:58;12.3;11.0;8.1;4.4;;;;33.0;51.0;
84439;SPS30;74675;51.980;5.730;2024-01-25T03:26:28;15.5;13.8;10.0;5.3;;;;35.0;50.0;
84439;SPS30;74675;51.980;5.730;2024-01-25T03:28:57;14.5;12.9;9.3;4.7;;;;36.0;50.0;
84439;SPS30;74675;51.980;5.730;2024-01-25T03:31:25;12.8;11.5;8.4;4.4;;;;39.0;49.0;
84439;SPS30;74675;51.980;5.730;2024-01-25T03:33:56;14.8;13.3;9.7;5.2;;;;40.0;49.0;
84439;SPS30;74675;51.980;5.730;2024-01-25T03:36:24;11.8;10.6;7.8;4.3;;;;39.0;49.0;
84439;SPS30;74675;51.980;5.730;2024-01-25T03:38:53;12.8;11.5;8.4;4.5;;;;37.0;51.0;
84439;SPS30;74675;51.980;5.730;2024-01-25T03:41:22;13.1;11.7;8.4;4.3;;;;37.0;51.0;
84439;SPS30;74675;51.980;5.730;2024-01-25T03:43:55;12.2;10.9;7.9;4.2;;;;38.0;51.0;
84439;SPS30;74675;51.980;5.730;2024-01-25T03:46:23;12.8;11.4;8.3;4.3;;;;38.0;51.0;
84439;SPS30;74675;51.980;5.730;2024-01-25T03:48:52;14.1;12.5;9.0;4.6;;;;39.0;54.0;
84439;SPS30;74675;51.980;5.730;2024-01-25T03:51:23;12.5;11.2;8.1;4.3;;;;39.0;54.0;
84439;SPS30;74675;51.980;5.730;2024-01-25T03:53:52;14.4;12.9;9.5;5.2;;;;41.0;53.0;
84439;SPS30;74675;51.980;5.730;2024-01-25T03:56:24;17.1;15.3;11.1;5.9;;;;46.0;52.0;
84439;SPS30;74675;51.980;5.730;2024-01-25T03:58:53;14.8;13.2;9.6;4.9;;;;50.0;51.0;
84439;SPS30;74675;51.980;5.730;2024-01-25T04:01:21;14.0;12.6;9.2;5.0;;;;52.0;51.0;
84439;SPS30;74675;51.980;5.730;2024-01-25T04:03:50;10.4;9.3;6.8;3.6;;;;69.0;47.0;
84439;SPS30;74675;51.980;5.730;2024-01-25T04:06:19;13.7;12.2;9.0;4.8;;;;69.0;47.0;
84439;SPS30;74675;51.980;5.730;2024-01-25T04:08:47;13.5;12.1;8.9;4.8;;;;68.0;47.0;
84439;SPS30;74675;51.980;5.730;2024-01-25T04:11:16;13.1;11.8;8.6;4.6;;;;67.0;48.0;
84439;SPS30;74675;51.980;5.730;2024-01-25T04:13:45;13.3;12.0;8.9;5.0;;;;61.0;52.0;
84439;SPS30;74675;51.980;5.730;2024-01-25T04:16:15;12.8;11.5;8.4;4.5;;;;63.0;51.0;
84439;SPS30;74675;51.980;5.730;2024-01-25T04:18:44;13.9;12.4;9.1;4.8;;;;63.0;51.0;
84439;SPS30;74675;51.980;5.730;2024-01-25T04:21:12;13.7;12.3;8.9;4.6;;;;63.0;52.0;
84439;SPS30;74675;51.980;5.730;2024-01-25T04:23:41;12.3;11.0;8.2;4.6;;;;57.0;54.0;
84439;SPS30;74675;51.980;5.730;2024-01-25T04:26:10;14.6;13.1;9.6;5.3;;;;57.0;54.0;
84439;SPS30;74675;51.980;5.730;2024-01-25T04:28:39;13.5;12.2;9.0;5.1;;;;58.0;55.0;
84439;SPS30;74675;51.980;5.730;2024-01-25T04:31:07;12.2;11.0;8.2;4.7;;;;55.0;56.0;
84439;SPS30;74675;51.980;5.730;2024-01-25T04:33:37;12.3;11.1;8.1;4.4;;;;49.0;60.0;
84439;SPS30;74675;51.980;5.730;2024-01-25T04:36:07;13.8;12.4;9.0;4.7;;;;44.0;64.0;
84439;SPS30;74675;51.980;5.730;2024-01-25T04:38:36;13.2;11.9;8.8;4.9;;;;35.0;70.0;
84439;SPS30;74675;51.980;5.730;2024-01-25T04:41:05;13.0;11.6;8.5;4.6;;;;37.0;72.0;
84439;SPS30;74675;51.980;5.730;2024-01-25T04:43:35;13.7;12.3;9.0;4.8;;;;26.0;106.0;
84439;SPS30;74675;51.980;5.730;2024-01-25T04:46:04;18.5;16.5;12.0;6.3;;;;7.0;129.0;
84439;SPS30;74675;51.980;5.730;2024-01-25T04:48:33;12.1;10.9;8.0;4.4;;;;8.0;105.0;
84439;SPS30;74675;51.980;5.730;2024-01-25T04:51:03;12.9;11.6;8.5;4.7;;;;12.0;81.0;
84439;SPS30;74675;51.980;5.730;2024-01-25T04:53:32;13.0;11.7;8.6;4.8;;;;14.0;76.0;
84439;SPS30;74675;51.980;5.730;2024-01-25T04:56:01;14.7;13.1;9.6;5.1;;;;15.0;76.0;
84439;SPS30;74675;51.980;5.730;2024-01-25T04:58:29;12.7;11.4;8.3;4.5;;;;15.0;76.0;
84439;SPS30;74675;51.980;5.730;2024-01-25T05:00:58;12.5;11.2;8.3;4.6;;;;16.0;77.0;
84439;SPS30;74675;51.980;5.730;2024-01-25T05:03:26;13.1;11.8;8.6;4.6;;;;16.0;78.0;
84439;SPS30;74675;51.980;5.730;2024-01-25T05:05:55;14.5;13.0;9.5;5.1;;;;15.0;80.0;
84439;SPS30;74675;51.980;5.730;2024-01-25T05:08:24;12.1;10.9;8.0;4.4;;;;15.0;81.0;
84439;SPS30;74675;51.980;5.730;2024-01-25T05:10:53;11.6;10.4;7.8;4.4;;;;13.0;88.0;
84439;SPS30;74675;51.980;5.730;2024-01-25T05:13:21;12.5;11.3;8.4;4.7;;;;5.0;104.0;
84439;SPS30;74675;51.980;5.730;2024-01-25T05:15:52;13.0;11.7;8.6;4.7;;;;4.0;101.0;
84439;SPS30;74675;51.980;5.730;2024-01-25T05:18:20;13.7;12.2;8.9;4.8;;;;5.0;99.0;
84439;SPS30;74675;51.980;5.730;2024-01-25T05:20:49;13.5;12.2;9.0;5.0;;;;6.0;97.0;
84439;SPS30;74675;51.980;5.730;2024-01-25T05:23:18;12.5;11.2;8.3;4.6;;;;6.0;94.0;
84439;SPS30;74675;51.980;5.730;2024-01-25T05:25:47;15.0;13.5;10.0;5.5;;;;7.0;93.0;
84439;SPS30;74675;51.980;5.730;2024-01-25T05:28:15;13.6;12.2;8.9;4.7;;;;7.0;92.0;
84439;SPS30;74675;51.980;5.730;2024-01-25T05:30:44;12.0;10.8;8.1;4.6;;;;7.0;98.0;
84439;SPS30;74675;51.980;5.730;2024-01-25T05:33:12;12.2;11.0;8.4;5.0;;;;8.0;96.0;
84439;SPS30;74675;51.980;5.730;2024-01-25T05:35:43;12.3;11.1;8.3;4.7;;;;8.0;96.0;
84439;SPS30;74675;51.980;5.730;2024-01-25T05:38:12;13.3;12.1;9.1;5.2;;;;9.0;122.0;
84439;SPS30;74675;51.980;5.730;2024-01-25T05:40:40;13.2;11.8;8.8;4.9;;;;8.0;123.0;
84439;SPS30;74675;51.980;5.730;2024-01-25T05:43:09;17.4;15.6;11.4;6.2;;;;8.0;115.0;
84439;SPS30;74675;51.980;5.730;2024-01-25T05:45:37;12.4;11.2;8.3;4.7;;;;8.0;112.0;
84439;SPS30;74675;51.980;5.730;2024-01-25T05:48:07;11.4;10.4;7.9;4.6;;;;7.0;107.0;
84439;SPS30;74675;51.980;5.730;2024-01-25T05:50:36;13.4;12.1;9.0;5.2;;;;5.0;114.0;
84439;SPS30;74675;51.980;5.730;2024-01-25T05:53:07;11.1;10.1;7.7;4.6;;;;3.0;121.0;
84439;SPS30;74675;51.980;5.730;2024-01-25T05:55:36;9.4;8.5;6.4;3.8;;;;2.0;126.0;
84439;SPS30;74675;51.980;5.730;2024-01-25T05:58:05;11.0;10.0;7.6;4.6;;;;1.0;129.0;
84439;SPS30;74675;51.980;5.730;2024-01-25T06:00:34;11.2;10.2;7.7;4.6;;;;1.0;136.0;
84439;SPS30;74675;51.980;5.730;2024-01-25T06:03:02;10.4;9.4;7.2;4.4;;;;1.0;150.0;
84439;SPS30;74675;51.980;5.730;2024-01-25T06:05:31;9.7;8.8;7.0;4.5;;;;1.0;189.0;
84439;SPS30;74675;51.980;5.730;2024-01-25T06:08:00;11.6;10.6;8.1;4.9;;;;1.0;160.0;
84439;SPS30;74675;51.980;5.730;2024-01-25T06:10:29;12.4;11.3;8.7;5.4;;;;1.0;142.0;
84439;SPS30;74675;51.980;5.730;2024-01-25T06:12:57;10.7;9.8;7.7;4.9;;;;1.0;122.0;
84439;SPS30;74675;51.980;5.730;2024-01-25T06:15:26;10.5;9.6;7.5;4.9;;;;1.0;130.0;
84439;SPS30;74675;51.980;5.730;2024-01-25T06:17:55;13.0;11.9;9.3;5.9;;;;1.0;134.0;
84439;SPS30;74675;51.980;5.730;2024-01-25T06:20:23;11.7;10.7;8.3;5.3;;;;1.0;144.0;
84439;SPS30;74675;51.980;5.730;2024-01-25T06:22:52;11.7;10.7;8.4;5.3;;;;1.0;150.0;
84439;SPS30;74675;51.980;5.730;2024-01-25T06:25:21;12.9;11.7;8.9;5.3;;;;1.0;144.0;
84439;SPS30;74675;51.980;5.730;2024-01-25T06:27:50;11.3;10.3;7.9;4.7;;;;1.0;133.0;
84439;SPS30;74675;51.980;5.730;2024-01-25T06:30:19;11.4;10.4;7.9;4.8;;;;1.0;128.0;
84439;SPS30;74675;51.980;5.730;2024-01-25T06:32:48;10.4;9.5;7.3;4.4;;;;1.0;127.0;
84439;SPS30;74675;51.980;5.730;2024-01-25T06:35:17;12.5;11.5;9.0;5.8;;;;1.0;141.0;
84439;SPS30;74675;51.980;5.730;2024-01-25T06:37:46;11.0;10.1;8.1;5.5;;;;1.0;257.0;
84439;SPS30;74675;51.980;5.730;2024-01-25T06:40:14;10.3;9.5;7.6;5.1;;;;1.0;180.0;
84439;SPS30;74675;51.980;5.730;2024-01-25T06:42:44;12.3;11.2;8.7;5.6;;;;1.0;160.0;
84439;SPS30;74675;51.980;5.730;2024-01-25T06:45:13;10.5;9.6;7.5;4.8;;;;1.0;155.0;
84439;SPS30;74675;51.980;5.730;2024-01-25T06:47:43;12.4;11.3;8.7;5.3;;;;1.0;144.0;
84439;SPS30;74675;51.980;5.730;2024-01-25T06:50:12;13.1;11.9;9.2;5.7;;;;1.0;130.0;
84439;SPS30;74675;51.980;5.730;2024-01-25T06:52:41;11.8;10.8;8.4;5.3;;;;1.0;133.0;
84439;SPS30;74675;51.980;5.730;2024-01-25T06:55:10;13.5;12.3;9.6;6.1;;;;1.0;130.0;
84439;SPS30;74675;51.980;5.730;2024-01-25T06:57:39;11.7;10.7;8.5;5.6;;;;1.0;127.0;
84439;SPS30;74675;51.980;5.730;2024-01-25T07:00:08;11.1;10.2;8.3;5.6;;;;1.0;126.0;
84439;SPS30;74675;51.980;5.730;2024-01-25T07:02:40;10.7;9.9;8.0;5.5;;;;1.0;123.0;
84439;SPS30;74675;51.980;5.730;2024-01-25T07:05:09;12.6;11.5;9.0;5.6;;;;1.0;125.0;
84439;SPS30;74675;51.980;5.730;2024-01-25T07:07:38;10.1;9.2;7.2;4.6;;;;1.0;134.0;
84439;SPS30;74675;51.980;5.730;2024-01-25T07:10:07;9.5;8.8;7.0;4.7;;;;1.0;134.0;
84439;SPS30;74675;51.980;5.730;2024-01-25T07:12:36;11.1;10.2;8.2;5.4;;;;1.0;131.0;
84439;SPS30;74675;51.980;5.730;2024-01-25T07:15:05;9.3;8.6;7.0;4.8;;;;1.0;201.0;
84439;SPS30;74675;51.980;5.730;2024-01-25T07:17:34;10.0;9.3;7.6;5.3;;;;1.0;226.0;
84439;SPS30;74675;51.980;5.730;2024-01-25T07:20:03;9.5;8.9;7.3;5.2;;;;1.0;499.0;
84439;SPS30;74675;51.980;5.730;2024-01-25T07:22:32;8.6;7.9;6.5;4.5;;;;1.0;455.0;
84439;SPS30;74675;51.980;5.730;2024-01-25T07:25:01;9.0;8.4;6.8;4.7;;;;1.0;435.0;
84439;SPS30;74675;51.980;5.730;2024-01-25T07:27:30;9.7;9.0;7.3;5.1;;;;1.0;371.0;
84439;SPS30;74675;51.980;5.730;2024-01-25T07:29:59;9.3;8.6;7.0;4.9;;;;1.0;349.0;
84439;SPS30;74675;51.980;5.730;2024-01-25T07:32:28;9.5;8.9;7.4;5.3;;;;1.0;291.0;
84439;SPS30;74675;51.980;5.730;2024-01-25T07:34:58;10.9;10.1;8.2;5.7;;;;1.0;249.0;
84439;SPS30;74675;51.980;5.730;2024-01-25T07:37:27;11.1;10.2;8.3;5.7;;;;1.0;283.0;
84439;SPS30;74675;51.980;5.730;2024-01-25T07:39:55;8.6;8.0;6.7;4.8;;;;1.0;291.0;
84439;SPS30;74675;51.980;5.730;2024-01-25T07:42:24;8.3;7.8;6.4;4.5;;;;1.0;263.0;
84439;SPS30;74675;51.980;5.730;2024-01-25T07:44:53;9.4;8.8;7.3;5.2;;;;1.0;244.0;
84439;SPS30;74675;51.980;5.730;2024-01-25T07:47:22;10.6;9.8;8.0;5.6;;;;1.0;271.0;
84439;SPS30;74675;51.980;5.730;2024-01-25T07:49:50;10.2;9.5;7.9;5.8;;;;1.0;294.0;
84439;SPS30;74675;51.980;5.730;2024-01-25T07:52:19;9.6;9.0;7.7;5.9;;;;1.0;293.0;
84439;SPS30;74675;51.980;5.730;2024-01-25T07:54:47;9.3;8.7;7.4;5.5;;;;1.0;333.0;
84439;SPS30;74675;51.980;5.730;2024-01-25T07:57:16;13.7;12.8;10.8;8.0;;;;1.0;335.0;
84439;SPS30;74675;51.980;5.730;2024-01-25T07:59:45;12.9;12.3;10.8;8.6;;;;1.0;318.0;
84439;SPS30;74675;51.980;5.730;2024-01-25T08:02:16;12.8;12.1;10.4;8.0;;;;1.0;313.0;
84439;SPS30;74675;51.980;5.730;2024-01-25T08:04:45;8.5;8.0;6.9;5.3;;;;1.0;270.0;
84439;SPS30;74675;51.980;5.730;2024-01-25T08:07:14;11.1;10.4;8.8;6.5;;;;1.0;254.0;
84439;SPS30;74675;51.980;5.730;2024-01-25T08:09:42;12.3;11.6;10.0;7.6;;;;1.0;266.0;
84439;SPS30;74675;51.980;5.730;2024-01-25T08:12:11;12.6;11.9;10.1;7.6;;;;1.0;268.0;
84439;SPS30;74675;51.980;5.730;2024-01-25T08:14:40;11.4;10.8;9.4;7.4;;;;1.0;310.0;
84439;SPS30;74675;51.980;5.730;2024-01-25T08:17:10;12.7;12.1;10.7;8.7;;;;1.0;293.0;
84439;SPS30;74675;51.980;5.730;2024-01-25T08:19:38;15.2;14.5;12.8;10.2;;;;1.0;284.0;
84439;SPS30;74675;51.980;5.730;2024-01-25T08:22:07;12.6;12.2;11.1;9.4;;;;1.0;411.0;
84439;SPS30;74675;51.980;5.730;2024-01-25T08:24:36;11.9;11.5;10.5;8.9;;;;1.0;341.0;
84439;SPS30;74675;51.980;5.730;2024-01-25T08:27:05;10.3;9.9;9.0;7.6;;;;1.0;282.0;
84439;SPS30;74675;51.980;5.730;2024-01-25T08:29:34;9.8;9.4;8.5;7.0;;;;1.0;229.0;
84439;SPS30;74675;51.980;5.730;2024-01-25T08:32:04;11.0;10.5;9.3;7.5;;;;1.0;210.0;
84439;SPS30;74675;51.980;5.730;2024-01-25T08:34:33;10.6;10.1;9.0;7.4;;;;1.0;243.0;
84439;SPS30;74675;51.980;5.730;2024-01-25T08:37:01;11.1;10.7;9.8;8.3;;;;1.0;211.0;
84439;SPS30;74675;51.980;5.730;2024-01-25T08:39:30;12.6;12.2;11.2;9.5;;;;1.0;195.0;
84439;SPS30;74675;51.980;5.730;2024-01-25T08:41:58;13.8;13.6;13.0;11.8;;;;1.0;207.0;
84439;SPS30;74675;51.980;5.730;2024-01-25T08:44:31;11.5;11.2;10.7;9.5;;;;1.0;218.0;
84439;SPS30;74675;51.980;5.730;2024-01-25T08:47:00;11.5;11.1;10.2;8.6;;;;1.0;214.0;
84439;SPS30;74675;51.980;5.730;2024-01-25T08:49:28;11.8;11.4;10.3;8.6;;;;1.0;202.0;
84439;SPS30;74675;51.980;5.730;2024-01-25T08:51:57;11.5;11.0;9.8;8.0;;;;1.0;193.0;
84439;SPS30;74675;51.980;5.730;2024-01-25T08:54:26;13.2;12.7;11.5;9.7;;;;1.0;253.0;
84439;SPS30;74675;51.980;5.730;2024-01-25T08:56:54;11.6;11.1;10.0;8.3;;;;1.0;224.0;
84439;SPS30;74675;51.980;5.730;2024-01-25T08:59:23;12.0;11.5;10.4;8.6;;;;1.0;198.0;
84439;SPS30;74675;51.980;5.730;2024-01-25T09:01:52;12.1;11.6;10.4;8.6;;;;1.0;181.0;
84439;SPS30;74675;51.980;5.730;2024-01-25T09:04:21;12.5;12.0;10.9;9.2;;;;1.0;189.0;
84439;SPS30;74675;51.980;5.730;2024-01-25T09:06:50;11.7;11.3;10.2;8.6;;;;1.0;193.0;
84439;SPS30;74675;51.980;5.730;2024-01-25T09:09:18;11.6;11.1;10.1;8.5;;;;1.0;195.0;
84439;SPS30;74675;51.980;5.730;2024-01-25T09:11:47;11.1;10.6;9.5;7.8;;;;1.0;181.0;
84439;SPS30;74675;51.980;5.730;2024-01-25T09:14:15;11.7;11.1;9.9;8.0;;;;1.0;179.0;
84439;SPS30;74675;51.980;5.730;2024-01-25T09:16:44;11.7;11.2;9.9;7.9;;;;1.0;180.0;
84439;SPS30;74675;51.980;5.730;2024-01-25T09:19:13;10.3;9.8;8.5;6.6;;;;1.0;182.0;
84439;SPS30;74675;51.980;5.730;2024-01-25T09:21:41;11.7;11.1;9.8;7.9;;;;1.0;179.0;
84439;SPS30;74675;51.980;5.730;2024-01-25T09:24:10;11.7;11.2;10.1;8.4;;;;1.0;180.0;
84439;SPS30;74675;51.980;5.730;2024-01-25T09:26:39;11.0;10.7;9.9;8.5;;;;1.0;194.0;
84439;SPS30;74675;51.980;5.730;2024-01-25T09:29:07;11.1;10.6;9.6;8.0;;;;1.0;193.0;
84439;SPS30;74675;51.980;5.730;2024-01-25T09:31:36;11.0;10.4;9.1;7.1;;;;1.0;185.0;
84439;SPS30;74675;51.980;5.730;2024-01-25T09:34:05;11.2;10.6;9.2;7.2;;;;1.0;183.0;
84439;SPS30;74675;51.980;5.730;2024-01-25T09:36:33;12.5;11.9;10.4;8.2;;;;1.0;181.0;
84439;SPS30;74675;51.980;5.730;2024-01-25T09:39:02;12.9;12.2;10.6;8.3;;;;1.0;180.0;
84439;SPS30;74675;51.980;5.730;2024-01-25T09:41:31;12.3;11.6;10.1;7.8;;;;1.0;185.0;
84439;SPS30;74675;51.980;5.730;2024-01-25T09:44:03;10.0;9.6;8.6;7.0;;;;1.0;201.0;
84439;SPS30;74675;51.980;5.730;2024-01-25T09:46:31;11.5;11.0;9.9;8.1;;;;1.0;197.0;
84439;SPS30;74675;51.980;5.730;2024-01-25T09:49:01;12.5;11.9;10.5;8.4;;;;1.0;193.0;
84439;SPS30;74675;51.980;5.730;2024-01-25T09:51:35;11.5;10.9;9.5;7.5;;;;1.0;191.0;
84439;SPS30;74675;51.980;5.730;2024-01-25T09:54:07;13.5;12.7;11.0;8.5;;;;1.0;196.0;
84439;SPS30;74675;51.980;5.730;2024-01-25T09:56:36;11.8;11.3;10.0;8.2;;;;1.0;191.0;
84439;SPS30;74675;51.980;5.730;2024-01-25T09:59:09;12.8;12.1;10.7;8.6;;;;1.0;184.0;
84439;SPS30;74675;51.980;5.730;2024-01-25T10:01:38;11.8;11.3;10.0;8.0;;;;1.0;180.0;
84439;SPS30;74675;51.980;5.730;2024-01-25T10:04:08;11.8;11.2;9.8;7.8;;;;1.0;181.0;
84439;SPS30;74675;51.980;5.730;2024-01-25T10:06:37;12.1;11.4;10.0;7.8;;;;1.0;185.0;
84439;SPS30;74675;51.980;5.730;2024-01-25T10:09:07;12.2;11.5;10.0;7.9;;;;1.0;199.0;
84439;SPS30;74675;51.980;5.730;2024-01-25T10:11:40;11.8;11.1;9.6;7.4;;;;1.0;207.0;
84439;SPS30;74675;51.980;5.730;2024-01-25T10:14:09;13.0;12.3;10.6;8.1;;;;1.0;230.0;
84439;SPS30;74675;51.980;5.730;2024-01-25T10:16:37;13.0;12.3;10.7;8.4;;;;1.0;224.0;
84439;SPS30;74675;51.980;5.730;2024-01-25T10:19:08;12.6;12.0;10.6;8.5;;;;1.0;217.0;
84439;SPS30;74675;51.980;5.730;2024-01-25T10:21:37;13.6;12.9;11.3;8.9;;;;1.0;205.0;
84439;SPS30;74675;51.980;5.730;2024-01-25T10:24:07;13.1;12.3;10.6;8.1;;;;1.0;195.0;
84439;SPS30;74675;51.980;5.730;2024-01-25T10:26:37;10.6;10.1;8.9;7.2;;;;1.0;214.0;
84439;SPS30;74675;51.980;5.730;2024-01-25T10:29:05;12.9;12.2;10.5;8.0;;;;1.0;211.0;
84439;SPS30;74675;51.980;5.730;2024-01-25T10:31:35;12.7;12.0;10.5;8.3;;;;1.0;207.0;
84439;SPS30;74675;51.980;5.730;2024-01-25T10:34:08;14.4;13.5;11.6;8.9;;;;1.0;210.0;
84439;SPS30;74675;51.980;5.730;2024-01-25T10:36:41;14.8;13.8;11.6;8.5;;;;1.0;194.0;
84439;SPS30;74675;51.980;5.730;2024-01-25T10:39:12;14.2;13.3;11.2;8.3;;;;1.0;186.0;
84439;SPS30;74675;51.980;5.730;2024-01-25T10:41:44;12.5;11.8;10.3;8.1;;;;1.0;190.0;
84439;SPS30;74675;51.980;5.730;2024-01-25T10:44:16;11.8;11.2;10.0;8.1;;;;1.0;194.0;
84439;SPS30;74675;51.980;5.730;2024-01-25T10:46:47;12.9;12.2;10.5;8.1;;;;1.0;192.0;
84439;SPS30;74675;51.980;5.730;2024-01-25T10:49:17;12.3;11.7;10.3;8.2;;;;1.0;188.0;
84439;SPS30;74675;51.980;5.730;2024-01-25T10:51:46;12.3;11.7;10.5;8.6;;;;1.0;189.0;
84439;SPS30;74675;51.980;5.730;2024-01-25T10:54:16;12.8;12.0;10.3;7.8;;;;1.0;190.0;
84439;SPS30;74675;51.980;5.730;2024-01-25T10:56:46;11.2;10.7;9.5;7.8;;;;1.0;191.0;
84439;SPS30;74675;51.980;5.730;2024-01-25T10:59:17;10.8;10.2;8.8;6.9;;;;1.0;190.0;
84439;SPS30;74675;51.980;5.730;2024-01-25T11:01:46;13.1;12.4;10.6;8.1;;;;1.0;188.0;
84439;SPS30;74675;51.980;5.730;2024-01-25T11:04:16;10.7;10.1;9.0;7.2;;;;1.0;192.0;
84439;SPS30;74675;51.980;5.730;2024-01-25T11:06:46;11.1;10.6;9.2;7.3;;;;1.0;194.0;
84439;SPS30;74675;51.980;5.730;2024-01-25T11:09:18;13.4;12.8;11.3;9.1;;;;1.0;200.0;
84439;SPS30;74675;51.980;5.730;2024-01-25T11:11:48;11.5;11.1;10.0;8.3;;;;1.0;203.0;
84439;SPS30;74675;51.980;5.730;2024-01-25T11:14:19;12.1;11.6;10.4;8.6;;;;1.0;202.0;
84439;SPS30;74675;51.980;5.730;2024-01-25T11:16:48;14.2;13.6;12.3;10.1;;;;1.0;202.0;
84439;SPS30;74675;51.980;5.730;2024-01-25T11:19:19;12.4;11.8;10.5;8.6;;;;1.0;195.0;
84439;SPS30;74675;51.980;5.730;2024-01-25T11:21:50;11.9;11.5;10.4;8.7;;;;1.0;195.0;
84439;SPS30;74675;51.980;5.730;2024-01-25T11:24:19;13.7;13.0;11.5;9.3;;;;1.0;195.0;
84439;SPS30;74675;51.980;5.730;2024-01-25T11:26:49;12.4;11.8;10.5;8.5;;;;1.0;284.0;
84439;SPS30;74675;51.980;5.730;2024-01-25T11:29:20;12.2;11.7;10.6;8.8;;;;1.0;244.0;
84439;SPS30;74675;51.980;5.730;2024-01-25T11:31:50;12.1;11.7;10.7;9.1;;;;1.0;210.0;
84439;SPS30;74675;51.980;5.730;2024-01-25T11:34:20;12.0;11.6;10.5;8.8;;;;1.0;201.0;
84439;SPS30;74675;51.980;5.730;2024-01-25T11:36:49;13.2;12.7;11.7;10.0;;;;1.0;200.0;
84439;SPS30;74675;51.980;5.730;2024-01-25T11:39:18;11.8;11.4;10.7;9.3;;;;1.0;199.0;
84439;SPS30;74675;51.980;5.730;2024-01-25T11:41:47;12.1;11.7;10.9;9.4;;;;1.0;195.0;
84439;SPS30;74675;51.980;5.730;2024-01-25T11:44:19;13.0;12.6;11.8;10.2;;;;1.0;196.0;
84439;SPS30;74675;51.980;5.730;2024-01-25T11:46:50;12.5;12.1;11.2;9.6;;;;1.0;198.0;
84439;SPS30;74675;51.980;5.730;2024-01-25T11:49:22;13.7;13.3;12.4;10.8;;;;1.0;206.0;
84439;SPS30;74675;51.980;5.730;2024-01-25T11:51:51;12.8;12.4;11.5;9.9;;;;1.0;223.0;
84439;SPS30;74675;51.980;5.730;2024-01-25T11:54:20;13.4;13.1;12.3;10.8;;;;1.0;228.0;
84439;SPS30;74675;51.980;5.730;2024-01-25T11:56:49;13.2;12.9;12.2;10.9;;;;1.0;234.0;